createdAt,value
2023-05-05T00:00:19.592Z,56.2894
2023-05-05T00:01:20.669Z,56.1419
2023-05-05T00:02:21.739Z,55.1954
2023-05-05T00:03:22.900Z,54.6388
2023-05-05T00:04:23.694Z,54.6482
2023-05-05T00:05:24.762Z,55.1483
2023-05-05T00:06:25.784Z,54.8299
2023-05-05T00:07:26.836Z,54.2570
2023-05-05T00:08:27.851Z,54.3740
2023-05-05T00:09:28.942Z,54.7130
2023-05-05T00:10:29.967Z,54.5431
2023-05-05T00:11:30.974Z,54.7661
2023-05-05T00:12:32.032Z,55.2040
2023-05-05T00:13:32.996Z,55.7234
2023-05-05T00:14:34.033Z,56.0916
2023-05-05T00:15:35.091Z,56.0188
2023-05-05T00:16:36.185Z,56.2973
2023-05-05T00:17:37.201Z,56.6090
2023-05-05T00:18:38.166Z,56.8777
2023-05-05T00:19:39.233Z,57.1350
2023-05-05T00:20:40.240Z,57.2212
2023-05-05T00:21:41.312Z,57.2790
2023-05-05T00:22:42.329Z,57.3409
2023-05-05T00:23:43.376Z,57.0265
2023-05-05T00:24:44.408Z,57.2932
2023-05-05T00:25:45.456Z,57.2954
2023-05-05T00:26:46.469Z,57.1805
2023-05-05T00:27:47.529Z,57.2452
2023-05-05T00:28:48.504Z,57.3138
2023-05-05T00:29:49.567Z,57.1060
2023-05-05T00:30:50.608Z,57.3661
2023-05-05T00:31:51.632Z,57.4974
2023-05-05T00:32:52.690Z,57.8313
2023-05-05T00:33:53.732Z,57.9859
2023-05-05T00:34:54.716Z,57.8342
2023-05-05T00:35:55.812Z,57.3267
2023-05-05T00:36:56.798Z,57.0958
2023-05-05T00:37:57.873Z,57.0213
2023-05-05T00:38:58.925Z,57.1066
2023-05-05T00:39:59.936Z,56.3513
2023-05-05T00:41:00.912Z,56.2597
2023-05-05T00:42:01.995Z,56.3132
2023-05-05T00:43:03.011Z,56.4387
2023-05-05T00:44:04.082Z,56.9326
2023-05-05T00:45:05.055Z,57.7124
2023-05-05T00:46:06.137Z,57.6174
2023-05-05T00:47:07.126Z,57.3967
2023-05-05T00:48:08.224Z,57.1363
2023-05-05T00:49:09.237Z,56.7866
2023-05-05T00:50:10.270Z,56.8039
2023-05-05T00:51:11.276Z,56.6339
2023-05-05T00:52:21.587Z,56.6730
2023-05-05T00:53:22.954Z,56.7000
2023-05-05T00:54:23.998Z,57.1319
2023-05-05T00:55:24.896Z,57.2337
2023-05-05T00:56:25.967Z,57.2062
2023-05-05T00:57:26.978Z,57.6707
2023-05-05T00:58:28.132Z,57.7416
2023-05-05T00:59:29.096Z,57.6706
2023-05-05T01:00:30.109Z,57.4701
2023-05-05T01:01:31.183Z,57.7147
2023-05-05T01:02:32.276Z,57.9244
2023-05-05T01:03:33.432Z,57.8603
2023-05-05T01:04:34.297Z,57.5410
2023-05-05T01:05:35.309Z,57.1438
2023-05-05T01:06:36.316Z,57.1243
2023-05-05T01:07:37.390Z,56.9308
2023-05-05T01:08:38.421Z,58.0241
2023-05-05T01:09:39.471Z,58.6414
2023-05-05T01:10:40.601Z,58.3116
2023-05-05T01:11:41.630Z,58.0229
2023-05-05T01:12:42.652Z,58.3297
2023-05-05T01:13:43.693Z,58.3129
2023-05-05T01:14:44.734Z,57.8048
2023-05-05T01:15:45.711Z,57.5019
2023-05-05T01:16:46.755Z,57.9252
2023-05-05T01:17:47.813Z,58.3998
2023-05-05T01:18:48.879Z,58.5939
2023-05-05T01:19:49.926Z,58.4937
2023-05-05T01:20:50.900Z,58.4589
2023-05-05T01:21:51.953Z,58.5249
2023-05-05T01:22:52.953Z,58.6914
2023-05-05T01:23:54.013Z,58.8474
2023-05-05T01:24:55.175Z,58.9955
2023-05-05T01:25:56.109Z,59.3138
2023-05-05T01:26:57.148Z,60.6217
2023-05-05T01:27:58.135Z,60.9195
2023-05-05T01:28:59.274Z,60.6761
2023-05-05T01:30:00.257Z,60.6326
2023-05-05T01:31:01.333Z,61.1823
2023-05-05T01:32:02.328Z,61.2146
2023-05-05T01:33:03.313Z,60.6332
2023-05-05T01:34:04.418Z,60.4221
2023-05-05T01:35:05.417Z,60.4193
2023-05-05T01:36:06.433Z,60.1561
2023-05-05T01:37:07.521Z,60.1275
2023-05-05T01:38:08.493Z,60.1513
2023-05-05T01:39:09.614Z,60.1290
2023-05-05T01:40:10.617Z,60.2287
2023-05-05T01:41:11.611Z,60.2704
2023-05-05T01:42:12.610Z,60.1834
2023-05-05T01:43:13.694Z,60.1383
2023-05-05T01:44:14.774Z,59.8468
2023-05-05T01:45:15.849Z,59.6361
2023-05-05T01:46:16.867Z,59.6511
2023-05-05T01:47:17.819Z,59.3839
2023-05-05T01:48:18.882Z,59.2722
2023-05-05T01:49:19.995Z,59.8192
2023-05-05T01:50:21.002Z,60.1782
2023-05-05T01:51:21.973Z,59.7923
2023-05-05T01:52:23.026Z,59.7388
2023-05-05T01:53:24.018Z,59.9481
2023-05-05T01:54:25.131Z,59.5958
2023-05-05T01:55:26.172Z,59.2754
2023-05-05T01:56:27.223Z,59.3326
2023-05-05T01:57:28.179Z,59.2924
2023-05-05T01:58:29.224Z,58.5673
2023-05-05T01:59:30.302Z,57.5372
2023-05-05T02:00:31.400Z,57.6487
2023-05-05T02:01:32.323Z,57.8144
2023-05-05T02:02:33.413Z,57.9930
2023-05-05T02:03:34.404Z,57.9995
2023-05-05T02:04:35.463Z,57.8363
2023-05-05T02:05:36.490Z,57.7929
2023-05-05T02:06:37.491Z,57.8435
2023-05-05T02:07:38.550Z,57.9899
2023-05-05T02:08:39.579Z,58.1554
2023-05-05T02:09:40.677Z,58.2586
2023-05-05T02:10:41.706Z,58.2626
2023-05-05T02:11:42.665Z,58.1145
2023-05-05T02:12:43.720Z,57.2649
2023-05-05T02:13:44.893Z,56.7270
2023-05-05T02:14:45.909Z,56.9621
2023-05-05T02:15:46.959Z,57.2445
2023-05-05T02:16:47.868Z,57.2939
2023-05-05T02:17:48.928Z,56.9338
2023-05-05T02:18:49.953Z,57.1158
2023-05-05T02:19:51.035Z,57.5293
2023-05-05T02:20:52.080Z,57.8039
2023-05-05T02:21:53.073Z,57.7521
2023-05-05T02:22:54.132Z,58.1815
2023-05-05T02:23:55.115Z,58.4078
2023-05-05T02:24:56.233Z,58.0971
2023-05-05T02:25:57.233Z,57.9729
2023-05-05T02:26:58.219Z,57.5933
2023-05-05T02:27:59.295Z,57.1589
2023-05-05T02:29:00.298Z,57.2372
2023-05-05T02:30:01.400Z,57.5569
2023-05-05T02:31:02.466Z,57.6354
2023-05-05T02:32:03.338Z,57.2213
2023-05-05T02:33:04.513Z,56.8853
2023-05-05T02:34:05.473Z,56.6029
2023-05-05T02:35:06.620Z,56.4989
2023-05-05T02:36:07.623Z,56.6262
2023-05-05T02:37:08.573Z,56.8951
2023-05-05T02:38:09.627Z,56.9540
2023-05-05T02:39:10.660Z,57.2021
2023-05-05T02:40:11.786Z,57.2513
2023-05-05T02:41:12.797Z,57.1518
2023-05-05T02:42:13.793Z,57.1664
2023-05-05T02:43:14.823Z,57.1938
2023-05-05T02:44:15.841Z,57.3934
2023-05-05T02:45:16.914Z,57.7633
2023-05-05T02:46:18.011Z,58.2034
2023-05-05T02:47:18.949Z,58.3713
2023-05-05T02:48:20.080Z,58.4245
2023-05-05T02:49:21.016Z,58.3667
2023-05-05T02:50:22.185Z,58.3159
2023-05-05T02:51:23.131Z,58.5730
2023-05-05T02:52:24.218Z,59.0376
2023-05-05T02:53:25.135Z,59.2790
2023-05-05T02:54:26.233Z,59.6686
2023-05-05T02:55:27.276Z,60.3966
2023-05-05T02:56:28.354Z,60.1731
2023-05-05T02:57:29.309Z,59.7908
2023-05-05T02:58:30.351Z,59.5823
2023-05-05T02:59:31.373Z,59.4672
2023-05-05T03:00:32.456Z,59.4874
2023-05-05T03:01:33.525Z,60.4702
2023-05-05T03:02:34.518Z,60.7084
2023-05-05T03:03:35.609Z,60.8846
2023-05-05T03:04:36.566Z,61.4672
2023-05-05T03:05:37.692Z,61.4024
2023-05-05T03:06:38.654Z,61.2728
2023-05-05T03:07:39.653Z,60.9070
2023-05-05T03:08:40.774Z,60.9940
2023-05-05T03:09:41.712Z,60.6253
2023-05-05T03:10:42.815Z,60.2216
2023-05-05T03:11:43.867Z,59.6667
2023-05-05T03:12:44.895Z,59.0273
2023-05-05T03:13:45.914Z,58.8066
2023-05-05T03:14:46.898Z,58.8338
2023-05-05T03:15:47.996Z,59.2371
2023-05-05T03:16:49.015Z,59.9337
2023-05-05T03:17:50.021Z,60.3868
2023-05-05T03:18:51.102Z,60.6484
2023-05-05T03:19:52.080Z,60.9681
2023-05-05T03:20:53.134Z,61.1879
2023-05-05T03:21:54.275Z,61.6334
2023-05-05T03:22:55.241Z,61.6315
2023-05-05T03:23:56.293Z,61.3864
2023-05-05T03:24:57.295Z,61.7114
2023-05-05T03:25:58.336Z,61.1138
2023-05-05T03:26:59.378Z,60.7380
2023-05-05T03:28:00.352Z,60.2725
2023-05-05T03:29:01.370Z,59.8075
2023-05-05T03:30:02.448Z,59.7313
2023-05-05T03:31:03.495Z,59.9789
2023-05-05T03:32:04.656Z,59.8863
2023-05-05T03:33:05.565Z,60.2798
2023-05-05T03:34:06.575Z,60.6288
2023-05-05T03:35:07.587Z,60.5741
2023-05-05T03:36:08.675Z,60.2661
2023-05-05T03:37:09.782Z,59.4438
2023-05-05T03:38:10.771Z,59.7123
2023-05-05T03:39:11.741Z,60.1992
2023-05-05T03:40:12.783Z,60.1957
2023-05-05T03:41:13.851Z,59.9774
2023-05-05T03:42:14.931Z,59.9134
2023-05-05T03:43:15.848Z,59.1598
2023-05-05T03:44:16.953Z,58.2592
2023-05-05T03:45:17.991Z,58.2807
2023-05-05T03:46:19.139Z,58.3392
2023-05-05T03:47:20.081Z,58.2459
2023-05-05T03:48:21.033Z,58.4619
2023-05-05T03:49:22.063Z,58.6117
2023-05-05T03:50:23.185Z,58.4158
2023-05-05T03:51:24.172Z,57.9916
2023-05-05T03:52:25.208Z,57.6459
2023-05-05T03:53:26.172Z,57.7114
2023-05-05T03:54:27.230Z,58.2727
2023-05-05T03:55:28.337Z,58.8867
2023-05-05T03:56:29.428Z,59.8417
2023-05-05T03:57:30.431Z,60.2752
2023-05-05T03:58:31.391Z,60.5123
2023-05-05T03:59:32.443Z,60.9168
2023-05-05T04:00:33.453Z,61.1123
2023-05-05T04:01:34.537Z,61.2653
2023-05-05T04:02:35.627Z,61.2739
2023-05-05T04:03:36.657Z,61.2459
2023-05-05T04:04:37.618Z,61.2030
2023-05-05T04:05:38.628Z,60.8512
2023-05-05T04:06:39.757Z,60.7763
2023-05-05T04:07:40.739Z,60.9507
2023-05-05T04:08:41.790Z,60.1171
2023-05-05T04:09:42.793Z,59.1035
2023-05-05T04:10:43.836Z,58.7687
2023-05-05T04:11:44.947Z,59.0176
2023-05-05T04:12:46.003Z,59.3641
2023-05-05T04:13:46.959Z,59.9898
2023-05-05T04:14:48.000Z,60.2450
2023-05-05T04:15:49.050Z,60.4612
2023-05-05T04:16:50.097Z,60.5886
2023-05-05T04:17:51.194Z,60.9223
2023-05-05T04:18:52.157Z,60.8693
2023-05-05T04:19:53.137Z,60.8067
2023-05-05T04:20:54.219Z,61.2068
2023-05-05T04:21:55.281Z,61.4965
2023-05-05T04:22:56.389Z,61.6353
2023-05-05T04:23:57.287Z,61.7823
2023-05-05T04:24:58.353Z,62.1280
2023-05-05T04:25:59.353Z,62.2914
2023-05-05T04:27:00.505Z,62.0954
2023-05-05T04:28:01.605Z,61.7223
2023-05-05T04:29:02.526Z,61.8101
2023-05-05T04:30:03.515Z,61.2034
2023-05-05T04:31:04.563Z,60.9048
2023-05-05T04:32:05.651Z,61.1081
2023-05-05T04:33:06.674Z,61.4025
2023-05-05T04:34:07.672Z,62.0182
2023-05-05T04:35:08.684Z,62.1008
2023-05-05T04:36:09.735Z,62.4489
2023-05-05T04:37:10.853Z,62.3468
2023-05-05T04:38:11.870Z,61.8529
2023-05-05T04:39:12.837Z,61.7243
2023-05-05T04:40:13.902Z,62.2144
2023-05-05T04:41:14.939Z,62.4732
2023-05-05T04:42:15.995Z,62.6610
2023-05-05T04:43:17.007Z,63.1107
2023-05-05T04:44:17.976Z,63.4776
2023-05-05T04:45:19.072Z,63.6122
2023-05-05T04:46:20.200Z,64.0955
2023-05-05T04:47:21.172Z,64.1848
2023-05-05T04:48:22.194Z,64.5685
2023-05-05T04:49:23.201Z,64.8671
2023-05-05T04:50:24.205Z,65.0972
2023-05-05T04:51:25.248Z,65.0589
2023-05-05T04:52:26.334Z,65.0249
2023-05-05T04:53:27.401Z,65.2830
2023-05-05T04:54:28.407Z,65.2981
2023-05-05T04:55:29.399Z,64.7124
2023-05-05T04:56:30.447Z,64.7737
2023-05-05T04:57:31.518Z,64.4387
2023-05-05T04:58:32.562Z,64.0288
2023-05-05T04:59:33.558Z,63.8613
2023-05-05T05:00:34.622Z,63.6147
2023-05-05T05:01:37.730Z,63.3318
2023-05-05T05:02:36.727Z,63.4186
2023-05-05T05:03:39.156Z,63.7266
2023-05-05T05:04:38.765Z,63.4567
2023-05-05T05:05:39.757Z,63.4235
2023-05-05T05:06:40.797Z,63.3932
2023-05-05T05:07:41.878Z,63.0173
2023-05-05T05:08:42.910Z,63.0156
2023-05-05T05:09:43.956Z,63.1074
2023-05-05T05:10:44.999Z,62.8193
2023-05-05T05:11:46.030Z,62.4015
2023-05-05T05:12:47.032Z,61.8893
2023-05-05T05:13:48.062Z,61.7910
2023-05-05T05:14:49.067Z,62.0549
2023-05-05T05:15:50.107Z,62.2407
2023-05-05T05:16:51.225Z,62.3197
2023-05-05T05:17:52.181Z,62.4810
2023-05-05T05:18:53.213Z,62.4641
2023-05-05T05:19:54.245Z,62.4284
2023-05-05T05:20:55.245Z,62.5686
2023-05-05T05:21:56.289Z,62.6322
2023-05-05T05:22:57.373Z,62.7298
2023-05-05T05:23:58.402Z,62.7513
2023-05-05T05:24:59.408Z,63.2360
2023-05-05T05:26:00.421Z,63.6250
2023-05-05T05:27:01.452Z,63.7919
2023-05-05T05:28:10.164Z,63.9533
2023-05-05T05:29:03.630Z,64.6623
2023-05-05T05:30:04.592Z,65.2527
2023-05-05T05:31:05.606Z,65.2895
2023-05-05T05:32:06.814Z,65.5104
2023-05-05T05:33:07.855Z,65.8205
2023-05-05T05:34:09.767Z,66.3436
2023-05-05T05:35:09.769Z,66.2733
2023-05-05T05:36:10.803Z,66.3384
2023-05-05T05:37:11.843Z,65.7499
2023-05-05T05:38:12.918Z,65.2065
2023-05-05T05:39:14.104Z,65.5312
2023-05-05T05:40:14.945Z,65.4612
2023-05-05T05:41:15.963Z,65.4917
2023-05-05T05:42:17.018Z,65.6951
2023-05-05T05:43:18.055Z,65.6861
2023-05-05T05:44:19.194Z,65.6727
2023-05-05T05:45:20.115Z,65.4044
2023-05-05T05:46:21.217Z,65.6509
2023-05-05T05:47:22.182Z,65.3461
2023-05-05T05:48:23.270Z,65.0889
2023-05-05T05:49:24.338Z,65.5921
2023-05-05T05:50:25.323Z,64.6870
2023-05-05T05:51:26.322Z,64.3387
2023-05-05T05:52:27.383Z,64.0627
2023-05-05T05:53:28.430Z,63.7151
2023-05-05T05:54:29.443Z,63.0224
2023-05-05T05:55:30.513Z,63.3610
2023-05-05T05:56:31.533Z,62.9747
2023-05-05T05:57:32.563Z,62.5184
2023-05-05T05:58:33.587Z,62.0193
2023-05-05T05:59:34.658Z,62.9020
2023-05-05T06:00:35.616Z,62.6434
2023-05-05T06:01:36.694Z,62.4196
2023-05-05T06:02:37.791Z,61.4014
2023-05-05T06:03:38.869Z,61.0655
2023-05-05T06:04:39.880Z,60.8246
2023-05-05T06:05:40.844Z,60.6773
2023-05-05T06:06:41.824Z,61.0163
2023-05-05T06:07:42.927Z,61.5309
2023-05-05T06:08:43.950Z,60.0351
2023-05-05T06:09:44.984Z,59.9792
2023-05-05T06:10:46.001Z,60.4915
2023-05-05T06:11:47.036Z,61.7047
2023-05-05T06:12:48.084Z,61.8519
2023-05-05T06:13:49.083Z,62.7554
2023-05-05T06:14:50.154Z,63.0456
2023-05-05T06:15:51.240Z,63.0767
2023-05-05T06:16:52.228Z,63.7363
2023-05-05T06:17:53.311Z,63.1554
2023-05-05T06:18:54.284Z,62.7344
2023-05-05T06:19:55.354Z,62.1313
2023-05-05T06:20:56.361Z,61.0956
2023-05-05T06:21:57.419Z,60.2151
2023-05-05T06:22:58.452Z,59.5464
2023-05-05T06:23:59.475Z,58.4611
2023-05-05T06:25:00.502Z,57.4413
2023-05-05T06:26:01.604Z,55.9705
2023-05-05T06:27:02.600Z,55.3832
2023-05-05T06:28:03.611Z,56.2551
2023-05-05T06:29:04.614Z,56.1246
2023-05-05T06:30:05.937Z,55.6796
2023-05-05T06:31:06.747Z,54.9597
2023-05-05T06:32:07.784Z,55.3658
2023-05-05T06:33:08.820Z,55.5111
2023-05-05T06:34:09.782Z,55.9580
2023-05-05T06:35:10.854Z,56.8043
2023-05-05T06:36:11.916Z,56.6844
2023-05-05T06:37:12.923Z,55.6336
2023-05-05T06:38:14.148Z,55.2090
2023-05-05T06:39:16.169Z,54.4729
2023-05-05T06:40:16.125Z,54.0910
2023-05-05T06:41:17.148Z,53.8990
2023-05-05T06:42:18.230Z,54.2681
2023-05-05T06:43:19.265Z,53.9903
2023-05-05T06:44:20.302Z,55.1914
2023-05-05T06:45:21.287Z,55.3219
2023-05-05T06:46:22.407Z,56.6561
2023-05-05T06:47:23.404Z,57.4887
2023-05-05T06:48:24.447Z,57.7735
2023-05-05T06:49:25.464Z,57.5551
2023-05-05T06:50:26.463Z,57.9836
2023-05-05T06:51:27.502Z,58.2851
2023-05-05T06:52:28.614Z,57.7893
2023-05-05T06:53:29.576Z,56.9971
2023-05-05T06:54:30.593Z,56.5649
2023-05-05T06:55:31.731Z,55.9610
2023-05-05T06:56:32.701Z,56.8456
2023-05-05T06:57:33.746Z,58.1816
2023-05-05T06:58:34.841Z,57.5930
2023-05-05T06:59:35.791Z,57.3091
2023-05-05T07:00:36.894Z,57.2637
2023-05-05T07:01:37.858Z,56.2244
2023-05-05T07:02:39.055Z,56.5309
2023-05-05T07:03:40.020Z,56.7441
2023-05-05T07:04:41.096Z,57.3580
2023-05-05T07:05:42.007Z,56.4136
2023-05-05T07:06:43.140Z,55.4681
2023-05-05T07:07:44.114Z,54.7463
2023-05-05T07:08:45.226Z,53.7886
2023-05-05T07:09:46.195Z,53.9313
2023-05-05T07:10:47.328Z,54.0188
2023-05-05T07:11:48.268Z,55.1791
2023-05-05T07:12:49.387Z,54.2368
2023-05-05T07:13:50.371Z,53.3833
2023-05-05T07:14:51.417Z,53.4682
2023-05-05T07:15:52.390Z,54.2771
2023-05-05T07:16:53.590Z,55.1947
2023-05-05T07:17:54.547Z,54.2459
2023-05-05T07:18:55.538Z,53.8866
2023-05-05T07:19:56.579Z,54.8857
2023-05-05T07:20:57.542Z,54.2949
2023-05-05T07:21:58.596Z,55.1258
2023-05-05T07:22:59.621Z,54.3771
2023-05-05T07:24:00.714Z,54.2853
2023-05-05T07:25:01.707Z,53.7937
2023-05-05T07:26:02.850Z,54.9165
2023-05-05T07:27:03.740Z,55.7527
2023-05-05T07:28:04.841Z,54.8038
2023-05-05T07:29:05.873Z,54.3466
2023-05-05T07:30:11.211Z,55.2111
2023-05-05T07:31:07.889Z,55.2722
2023-05-05T07:32:09.024Z,54.3243
2023-05-05T07:33:10.087Z,54.2150
2023-05-05T07:34:11.058Z,54.2356
2023-05-05T07:35:12.127Z,54.5981
2023-05-05T07:36:13.151Z,54.6835
2023-05-05T07:37:14.106Z,54.6326
2023-05-05T07:38:15.165Z,53.8691
2023-05-05T07:39:16.223Z,53.2972
2023-05-05T07:40:17.279Z,52.8395
2023-05-05T07:41:18.299Z,51.6600
2023-05-05T07:42:19.316Z,52.8051
2023-05-05T07:43:20.318Z,53.2644
2023-05-05T07:44:21.459Z,52.7318
2023-05-05T07:45:22.424Z,52.7564
2023-05-05T07:46:23.467Z,53.2072
2023-05-05T07:47:24.542Z,53.4123
2023-05-05T07:48:25.566Z,52.9628
2023-05-05T07:49:26.569Z,52.7478
2023-05-05T07:50:27.627Z,52.9647
2023-05-05T07:51:28.594Z,53.7347
2023-05-05T07:52:44.223Z,53.7721
2023-05-05T07:53:30.666Z,53.1314
2023-05-05T07:54:31.799Z,52.8595
2023-05-05T07:55:32.752Z,52.9069
2023-05-05T07:56:33.856Z,52.8940
2023-05-05T07:57:34.796Z,53.1698
2023-05-05T07:58:35.865Z,53.3329
2023-05-05T07:59:36.914Z,52.9678
2023-05-05T08:00:37.981Z,52.1770
2023-05-05T08:01:38.930Z,52.1352
2023-05-05T08:02:40.067Z,52.2889
2023-05-05T08:03:41.076Z,52.6502
2023-05-05T08:04:42.306Z,52.4921
2023-05-05T08:05:43.187Z,52.3235
2023-05-05T08:06:44.194Z,51.8076
2023-05-05T08:07:45.189Z,52.7124
2023-05-05T08:08:46.166Z,53.2121
2023-05-05T08:09:47.285Z,53.2092
2023-05-05T08:10:48.318Z,53.0799
2023-05-05T08:11:49.365Z,53.0250
2023-05-05T08:12:50.322Z,53.2296
2023-05-05T08:13:51.447Z,54.3203
2023-05-05T08:14:52.418Z,52.7081
2023-05-05T08:15:53.542Z,51.2208
2023-05-05T08:16:54.472Z,51.1279
2023-05-05T08:17:55.582Z,50.8741
2023-05-05T08:18:56.539Z,51.0566
2023-05-05T08:19:57.620Z,50.5426
2023-05-05T08:20:58.652Z,50.3676
2023-05-05T08:22:01.374Z,50.5725
2023-05-05T08:23:00.686Z,50.5893
2023-05-05T08:24:01.732Z,50.8840
2023-05-05T08:25:02.782Z,51.2849
2023-05-05T08:26:03.887Z,51.2116
2023-05-05T08:27:04.872Z,51.4542
2023-05-05T08:28:05.866Z,50.9811
2023-05-05T08:29:06.872Z,50.9912
2023-05-05T08:30:07.981Z,50.9336
2023-05-05T08:31:09.011Z,50.8212
2023-05-05T08:32:10.020Z,50.4090
2023-05-05T08:33:11.094Z,50.4196
2023-05-05T08:34:12.088Z,50.3619
2023-05-05T08:35:13.359Z,51.0648
2023-05-05T08:36:14.185Z,51.7111
2023-05-05T08:37:15.206Z,52.2864
2023-05-05T08:38:16.223Z,51.3748
2023-05-05T08:39:17.316Z,51.2755
2023-05-05T08:40:18.321Z,50.1170
2023-05-05T08:41:19.345Z,49.1496
2023-05-05T08:42:35.605Z,48.6369
2023-05-05T08:43:21.331Z,48.9391
2023-05-05T08:44:22.401Z,49.5863
2023-05-05T08:45:23.481Z,49.4856
2023-05-05T08:46:24.523Z,50.0369
2023-05-05T08:47:25.527Z,50.7154
2023-05-05T08:48:26.596Z,51.4750
2023-05-05T08:49:27.536Z,51.7690
2023-05-05T08:50:28.647Z,52.5761
2023-05-05T08:51:29.674Z,52.6080
2023-05-05T08:52:30.741Z,52.4237
2023-05-05T08:53:31.716Z,52.2588
2023-05-05T08:54:32.738Z,51.9266
2023-05-05T08:55:33.794Z,52.5366
2023-05-05T08:56:34.847Z,52.6471
2023-05-05T08:57:35.917Z,52.1108
2023-05-05T08:58:36.910Z,52.1429
2023-05-05T08:59:37.908Z,52.6358
2023-05-05T09:00:39.028Z,52.2296
2023-05-05T09:01:40.042Z,52.1131
2023-05-05T09:02:41.105Z,51.3459
2023-05-05T09:03:42.311Z,51.5087
2023-05-05T09:04:43.093Z,50.8238
2023-05-05T09:05:44.151Z,50.2706
2023-05-05T09:06:45.234Z,50.3926
2023-05-05T09:07:46.233Z,50.3383
2023-05-05T09:08:47.235Z,51.2746
2023-05-05T09:09:48.246Z,50.6963
2023-05-05T09:10:49.435Z,50.6466
2023-05-05T09:11:50.447Z,50.4573
2023-05-05T09:12:51.702Z,50.2022
2023-05-05T09:13:52.469Z,50.7378
2023-05-05T09:14:53.552Z,51.6689
2023-05-05T09:15:54.565Z,51.9078
2023-05-05T09:16:55.601Z,52.1327
2023-05-05T09:17:56.636Z,52.2508
2023-05-05T09:18:57.654Z,51.9579
2023-05-05T09:19:58.672Z,51.9615
2023-05-05T09:20:59.826Z,52.3926
2023-05-05T09:22:00.804Z,52.6305
2023-05-05T09:23:01.790Z,51.0061
2023-05-05T09:24:07.824Z,51.4571
2023-05-05T09:25:03.902Z,51.8916
2023-05-05T09:26:04.954Z,51.8877
2023-05-05T09:27:05.976Z,52.6072
2023-05-05T09:28:07.008Z,52.6220
2023-05-05T09:29:08.006Z,51.7984
2023-05-05T09:30:09.037Z,50.9922
2023-05-05T09:31:10.149Z,50.8269
2023-05-05T09:32:11.241Z,50.2764
2023-05-05T09:33:12.177Z,50.8688
2023-05-05T09:34:13.185Z,50.8393
2023-05-05T09:35:14.253Z,51.7399
2023-05-05T09:36:15.280Z,51.3193
2023-05-05T09:37:16.285Z,51.0633
2023-05-05T09:38:17.338Z,51.0461
2023-05-05T09:39:18.346Z,51.2138
2023-05-05T09:40:19.533Z,50.2430
2023-05-05T09:41:20.441Z,49.9583
2023-05-05T09:42:21.540Z,50.1873
2023-05-05T09:43:22.496Z,50.7808
2023-05-05T09:44:23.497Z,50.4200
2023-05-05T09:45:24.516Z,50.2782
2023-05-05T09:46:25.726Z,50.0563
2023-05-05T09:47:29.904Z,49.9514
2023-05-05T09:48:27.736Z,50.0154
2023-05-05T09:49:28.653Z,50.8006
2023-05-05T09:50:29.730Z,50.9988
2023-05-05T09:51:30.753Z,51.1695
2023-05-05T09:52:31.831Z,50.8430
2023-05-05T09:53:32.797Z,50.9488
2023-05-05T09:54:33.835Z,50.9143
2023-05-05T09:55:34.826Z,51.2606
2023-05-05T09:56:35.966Z,51.5463
2023-05-05T09:57:37.011Z,51.1728
2023-05-05T09:58:38.077Z,50.1262
2023-05-05T09:59:38.986Z,50.0477
2023-05-05T10:00:40.009Z,49.5633
2023-05-05T10:01:41.115Z,50.2576
2023-05-05T10:02:42.242Z,50.9794
2023-05-05T10:03:43.105Z,51.5251
2023-05-05T10:04:44.158Z,51.4752
2023-05-05T10:05:45.157Z,50.8077
2023-05-05T10:06:46.263Z,50.7318
2023-05-05T10:07:47.321Z,51.1222
2023-05-05T10:08:48.285Z,52.0388
2023-05-05T10:09:49.329Z,50.3393
2023-05-05T10:10:50.326Z,49.1059
2023-05-05T10:11:51.442Z,49.0993
2023-05-05T10:12:52.496Z,49.3290
2023-05-05T10:13:53.479Z,49.9693
2023-05-05T10:14:54.434Z,49.8573
2023-05-05T10:15:55.518Z,48.6587
2023-05-05T10:16:56.593Z,49.0208
2023-05-05T10:18:06.893Z,49.1325
2023-05-05T10:18:58.591Z,48.5507
2023-05-05T10:19:59.640Z,48.0941
2023-05-05T10:21:00.662Z,47.9402
2023-05-05T10:22:01.740Z,48.0322
2023-05-05T10:23:02.715Z,47.4747
2023-05-05T10:24:03.661Z,47.3576
2023-05-05T10:25:04.724Z,47.3997
2023-05-05T10:26:05.725Z,48.2366
2023-05-05T10:27:06.808Z,49.1073
2023-05-05T10:28:07.843Z,48.6941
2023-05-05T10:29:08.868Z,48.2083
2023-05-05T10:30:10.110Z,48.3271
2023-05-05T10:31:24.587Z,48.1937
2023-05-05T10:32:33.545Z,48.7134
2023-05-05T10:33:30.212Z,48.8013
2023-05-05T10:34:14.107Z,48.8957
2023-05-05T10:35:15.074Z,48.6634
2023-05-05T10:36:16.136Z,48.9533
2023-05-05T10:37:17.125Z,49.5918
2023-05-05T10:38:18.160Z,50.4267
2023-05-05T10:39:19.336Z,50.4798
2023-05-05T10:40:20.377Z,49.9994
2023-05-05T10:41:21.334Z,49.9408
2023-05-05T10:42:22.424Z,49.9113
2023-05-05T10:43:23.540Z,49.6331
2023-05-05T10:44:24.572Z,49.4132
2023-05-05T10:45:25.627Z,49.6873
2023-05-05T10:46:26.770Z,49.2058
2023-05-05T10:47:27.590Z,49.0754
2023-05-05T10:48:28.700Z,49.3166
2023-05-05T10:49:29.734Z,49.4254
2023-05-05T10:50:30.780Z,49.9106
2023-05-05T10:51:40.459Z,50.1184
2023-05-05T10:52:32.789Z,50.1082
2023-05-05T10:53:33.825Z,49.7391
2023-05-05T10:54:37.173Z,50.0214
2023-05-05T10:55:35.879Z,50.1552
2023-05-05T10:56:36.940Z,49.9983
2023-05-05T10:57:37.976Z,49.7861
2023-05-05T10:58:47.477Z,49.0713
2023-05-05T10:59:40.181Z,48.7077
2023-05-05T11:00:41.077Z,48.3226
2023-05-05T11:01:42.145Z,48.6243
2023-05-05T11:02:43.212Z,48.6268
2023-05-05T11:03:44.206Z,49.3243
2023-05-05T11:04:45.237Z,49.5925
2023-05-05T11:05:46.195Z,49.0948
2023-05-05T11:06:47.300Z,48.8161
2023-05-05T11:07:48.282Z,48.5639
2023-05-05T11:08:49.354Z,47.8770
2023-05-05T11:09:50.479Z,48.1896
2023-05-05T11:10:51.420Z,48.8195
2023-05-05T11:11:52.446Z,48.2042
2023-05-05T11:12:53.521Z,48.0882
2023-05-05T11:13:54.530Z,47.7998
2023-05-05T11:14:55.621Z,47.0474
2023-05-05T11:15:56.536Z,46.7311
2023-05-05T11:16:57.640Z,46.7810
2023-05-05T11:17:58.675Z,47.0561
2023-05-05T11:18:59.747Z,47.2463
2023-05-05T11:20:00.753Z,46.6958
2023-05-05T11:21:01.798Z,46.2554
2023-05-05T11:22:02.772Z,45.4337
2023-05-05T11:23:03.829Z,45.7332
2023-05-05T11:24:04.884Z,46.1541
2023-05-05T11:25:05.917Z,46.0390
2023-05-05T11:26:06.969Z,45.5599
2023-05-05T11:27:07.891Z,45.6273
2023-05-05T11:28:09.065Z,45.9279
2023-05-05T11:29:10.046Z,46.3699
2023-05-05T11:30:11.343Z,46.3787
2023-05-05T11:31:12.077Z,46.4777
2023-05-05T11:32:13.106Z,46.8665
2023-05-05T11:33:14.091Z,46.8031
2023-05-05T11:34:15.193Z,47.0060
2023-05-05T11:35:16.242Z,46.5957
2023-05-05T11:36:17.294Z,46.3765
2023-05-05T11:37:18.235Z,46.5558
2023-05-05T11:38:19.302Z,46.3532
2023-05-05T11:39:20.340Z,46.9300
2023-05-05T11:40:21.399Z,46.7986
2023-05-05T11:41:22.360Z,46.1527
2023-05-05T11:42:23.434Z,46.6429
2023-05-05T11:43:24.476Z,46.9733
2023-05-05T11:44:25.526Z,47.1214
2023-05-05T11:45:26.669Z,46.4160
2023-05-05T11:46:27.593Z,46.5400
2023-05-05T11:47:28.602Z,46.4592
2023-05-05T11:48:29.632Z,46.4998
2023-05-05T11:49:30.720Z,46.6145
2023-05-05T11:50:31.715Z,46.3146
2023-05-05T11:51:32.688Z,46.4986
2023-05-05T11:52:33.768Z,46.7739
2023-05-05T11:53:34.781Z,46.2563
2023-05-05T11:54:35.856Z,45.8703
2023-05-05T11:55:36.907Z,46.0042
2023-05-05T11:56:37.868Z,45.6109
2023-05-05T11:57:38.859Z,45.7281
2023-05-05T11:58:39.925Z,44.4887
2023-05-05T11:59:40.979Z,44.3717
2023-05-05T12:00:42.034Z,44.2318
2023-05-05T12:01:43.006Z,44.3397
2023-05-05T12:02:44.192Z,44.2424
2023-05-05T12:03:45.289Z,44.2046
2023-05-05T12:04:46.197Z,44.5911
2023-05-05T12:05:47.156Z,44.2563
2023-05-05T12:06:48.166Z,44.5527
2023-05-05T12:07:49.215Z,44.5196
2023-05-05T12:08:50.277Z,44.3190
2023-05-05T12:09:51.352Z,43.9324
2023-05-05T12:10:52.356Z,44.5693
2023-05-05T12:11:53.337Z,44.8592
2023-05-05T12:12:55.521Z,44.6314
2023-05-05T12:13:55.379Z,44.6504
2023-05-05T12:14:56.452Z,44.4838
2023-05-05T12:15:57.643Z,44.8944
2023-05-05T12:16:58.610Z,45.0923
2023-05-05T12:18:02.111Z,45.1005